Time;durP1;ratioP1;P1;durP2;ratioP2;P2;SDS_P1;SDS_P2;PMS_P1;PMS_P2;Temp;Humidity;BMP_temperature;BMP_pressure;BME280_temperature;BME280_humidity;BME280_pressure;Samples;Min_cycle;Max_cycle;Signal;HPM_P1;HPM_P2
2022/03/05 00:00:00;;;;;;;3.03;1.00;;;;;;;2.50;86.74;101802.34;4972791;28;20415;-68
2022/03/05 00:02:26;;;;;;;0.63;0.57;;;;;;;2.47;86.41;101802.09;4976919;28;20037;-69
2022/03/05 00:04:52;;;;;;;0.63;0.50;;;;;;;2.48;86.52;101808.97;4974241;28;20046;-69
2022/03/05 00:07:19;;;;;;;1.33;0.65;;;;;;;2.44;86.06;101800.00;4991273;28;20065;-70
2022/03/05 00:09:45;;;;;;;4.18;0.80;;;;;;;2.45;86.38;101801.56;4984570;28;20042;-69
2022/03/05 00:12:11;;;;;;;1.00;0.88;;;;;;;2.44;86.61;101800.00;4981006;28;20027;-69
2022/03/05 00:14:36;;;;;;;1.52;0.50;;;;;;;2.39;86.19;101798.13;4982265;28;20399;-69
2022/03/05 00:17:03;;;;;;;0.40;0.40;;;;;;;2.39;86.54;101800.78;4990949;28;20084;-69
2022/03/05 00:19:29;;;;;;;0.52;0.50;;;;;;;2.37;86.50;101796.81;4940710;28;20043;-70
2022/03/05 00:21:57;;;;;;;0.63;0.50;;;;;;;2.35;86.33;101802.41;4956910;28;20081;-70
2022/03/05 00:24:22;;;;;;;4.53;0.90;;;;;;;2.30;86.52;101798.97;4972736;28;20039;-68
2022/03/05 00:26:48;;;;;;;0.95;0.50;;;;;;;2.29;86.52;101805.31;4955634;28;20072;-69
2022/03/05 00:29:13;;;;;;;1.90;0.98;;;;;;;2.28;86.90;101793.94;4976587;28;20038;-69
2022/03/05 00:31:39;;;;;;;0.98;0.50;;;;;;;2.26;86.77;101798.72;4987648;28;20494;-70
2022/03/05 00:34:05;;;;;;;1.65;0.73;;;;;;;2.26;86.64;101793.41;4971579;28;20035;-69
2022/03/05 00:36:31;;;;;;;2.15;1.08;;;;;;;2.26;86.54;101800.56;4972330;28;20030;-70
2022/03/05 00:38:56;;;;;;;1.70;0.75;;;;;;;2.21;86.87;101797.91;4965656;28;20026;-70
2022/03/05 00:41:22;;;;;;;1.85;1.05;;;;;;;2.12;87.07;101795.03;4979555;28;20078;-69
2022/03/05 00:43:47;;;;;;;0.45;0.45;;;;;;;2.12;87.18;101805.66;4957793;28;20105;-69
2022/03/05 00:46:13;;;;;;;0.40;0.40;;;;;;;2.12;86.92;101791.56;4954512;28;20085;-69
2022/03/05 00:48:38;;;;;;;0.80;0.55;;;;;;;2.11;87.15;101795.31;4988632;28;20038;-69
2022/03/05 00:51:04;;;;;;;0.35;0.35;;;;;;;2.13;86.99;101790.53;4965630;28;20030;-69
2022/03/05 00:53:30;;;;;;;3.40;0.63;;;;;;;2.13;87.31;101793.19;4967906;28;20527;-69
2022/03/05 00:55:56;;;;;;;1.05;0.80;;;;;;;2.11;86.80;101793.41;4971787;28;20039;-69
2022/03/05 00:58:21;;;;;;;3.95;0.60;;;;;;;2.06;87.09;101787.34;4967895;28;20097;-68
2022/03/05 01:00:47;;;;;;;1.50;0.65;;;;;;;2.07;87.12;101792.38;4968894;28;20031;-69
2022/03/05 01:03:13;;;;;;;0.63;0.45;;;;;;;2.08;87.82;101790.50;4952185;28;20061;-69
2022/03/05 01:05:39;;;;;;;3.95;0.80;;;;;;;2.04;87.04;101798.22;4955732;28;20496;-69
2022/03/05 01:08:04;;;;;;;1.13;0.47;;;;;;;2.03;87.45;101790.53;4970641;28;20460;-70
2022/03/05 01:10:29;;;;;;;0.70;0.70;;;;;;;2.00;87.33;101791.06;4971472;28;20031;-70
2022/03/05 01:12:55;;;;;;;1.08;0.75;;;;;;;2.00;87.06;101789.22;4970525;28;20046;-70
2022/03/05 01:15:20;;;;;;;1.70;0.60;;;;;;;2.00;87.26;101791.88;4967647;28;20039;-69
2022/03/05 01:17:46;;;;;;;0.55;0.55;;;;;;;1.93;86.89;101786.06;4950555;28;20039;-69
2022/03/05 01:20:11;;;;;;;0.57;0.57;;;;;;;1.90;87.35;101778.59;4974371;28;20117;-69
2022/03/05 01:22:37;;;;;;;0.47;0.47;;;;;;;1.91;87.56;101780.22;4961637;28;20045;-69
2022/03/05 01:25:03;;;;;;;0.50;0.50;;;;;;;1.87;87.78;101778.34;4953673;28;20046;-69
2022/03/05 01:27:28;;;;;;;4.68;0.82;;;;;;;1.86;88.02;101782.09;4973808;28;20078;-69
2022/03/05 01:29:54;;;;;;;1.77;0.50;;;;;;;1.86;87.91;101782.84;4968774;28;20178;-69
2022/03/05 01:32:19;;;;;;;2.63;0.43;;;;;;;1.84;87.61;101780.47;4965383;28;20024;-70
2022/03/05 01:34:45;;;;;;;0.80;0.50;;;;;;;1.84;87.21;101782.31;4965622;28;20047;-69
2022/03/05 01:37:10;;;;;;;1.30;0.57;;;;;;;1.84;87.54;101780.47;4975007;28;20077;-69
2022/03/05 01:39:36;;;;;;;0.60;0.60;;;;;;;1.78;87.18;101781.53;4950979;28;20038;-69
2022/03/05 01:42:02;;;;;;;0.60;0.60;;;;;;;1.79;87.55;101787.66;4958785;28;20050;-69
2022/03/05 01:44:28;;;;;;;0.68;0.65;;;;;;;1.75;87.80;101791.91;4961284;28;20038;-69
2022/03/05 01:46:53;;;;;;;0.88;0.63;;;;;;;1.76;87.64;101783.66;4966929;28;20089;-69
2022/03/05 01:49:19;;;;;;;0.30;0.30;;;;;;;1.73;87.18;101784.22;4962105;28;20512;-69
2022/03/05 01:51:46;;;;;;;0.47;0.45;;;;;;;1.72;87.36;101779.19;4963072;28;20043;-69
2022/03/05 01:54:13;;;;;;;0.30;0.30;;;;;;;1.64;87.62;101785.84;4951495;28;20078;-69
2022/03/05 01:56:39;;;;;;;0.77;0.50;;;;;;;1.63;87.32;101789.53;4970341;28;20043;-69
2022/03/05 01:59:05;;;;;;;0.45;0.40;;;;;;;1.62;87.54;101790.63;4967109;28;20031;-69
2022/03/05 02:01:31;;;;;;;1.00;0.55;;;;;;;1.64;88.28;101787.69;4975492;28;20114;-69
2022/03/05 02:03:57;;;;;;;0.57;0.50;;;;;;;1.61;88.15;101791.66;4959533;28;20332;-69
2022/03/05 02:06:24;;;;;;;1.10;0.85;;;;;;;1.61;88.22;101789.00;4968288;28;20133;-69
2022/03/05 02:08:49;;;;;;;0.90;0.73;;;;;;;1.62;87.96;101793.25;4982745;28;20130;-69
2022/03/05 02:11:16;;;;;;;0.65;0.65;;;;;;;1.62;87.67;101780.00;4955052;28;20118;-70
2022/03/05 02:13:41;;;;;;;0.40;0.40;;;;;;;1.58;88.01;101775.47;4962338;28;20043;-69
2022/03/05 02:16:08;;;;;;;0.40;0.40;;;;;;;1.58;87.80;101781.59;4969238;28;20035;-69
2022/03/05 02:18:33;;;;;;;0.32;0.32;;;;;;;1.60;87.86;101778.66;4959719;28;20050;-69
2022/03/05 02:20:59;;;;;;;0.40;0.40;;;;;;;1.58;87.93;101770.16;4985637;28;20035;-69
2022/03/05 02:23:24;;;;;;;0.40;0.40;;;;;;;1.58;88.18;101772.81;4963711;28;20095;-69
2022/03/05 02:25:52;;;;;;;0.98;0.40;;;;;;;1.53;88.09;101768.31;4954487;28;20059;-69
2022/03/05 02:28:18;;;;;;;1.02;0.57;;;;;;;1.54;88.60;101764.59;4974244;28;20403;-69
2022/03/05 02:30:44;;;;;;;0.32;0.32;;;;;;;1.54;88.50;101769.09;4968873;28;20031;-69
2022/03/05 02:33:09;;;;;;;1.70;0.73;;;;;;;1.54;87.96;101767.25;4963919;28;20492;-69
2022/03/05 02:35:35;;;;;;;0.38;0.38;;;;;;;1.47;87.95;101772.03;4957325;28;20125;-69
2022/03/05 02:38:00;;;;;;;0.50;0.50;;;;;;;1.50;88.02;101763.53;4961322;28;20093;-70
2022/03/05 02:40:26;;;;;;;1.00;0.70;;;;;;;1.47;88.52;101769.38;4985957;28;20045;-69
2022/03/05 02:42:51;;;;;;;0.60;0.60;;;;;;;1.49;88.46;101769.13;4952590;28;20039;-69
2022/03/05 02:45:17;;;;;;;3.03;1.00;;;;;;;1.47;88.29;101766.72;4947976;28;20031;-69
2022/03/05 02:47:42;;;;;;;0.65;0.65;;;;;;;1.48;88.33;101765.66;4970779;28;20050;-69
2022/03/05 02:50:08;;;;;;;0.60;0.60;;;;;;;1.49;88.57;101759.28;4972356;28;20057;-69
2022/03/05 02:52:33;;;;;;;0.50;0.38;;;;;;;1.50;88.34;101770.69;4972984;28;20047;-69
2022/03/05 02:54:59;;;;;;;0.43;0.43;;;;;;;1.47;88.69;101773.91;4954691;28;20082;-69
2022/03/05 02:57:24;;;;;;;1.17;0.88;;;;;;;1.46;88.88;101767.78;4942653;28;20121;-69
2022/03/05 02:59:50;;;;;;;1.55;0.38;;;;;;;1.42;88.57;101761.41;4969229;28;20679;-69
2022/03/05 03:02:16;;;;;;;0.40;0.35;;;;;;;1.43;88.44;101764.88;4989228;28;20145;-69
2022/03/05 03:04:42;;;;;;;1.42;0.70;;;;;;;1.41;88.28;101767.81;4958357;28;20531;-69
2022/03/05 03:07:07;;;;;;;1.23;0.50;;;;;;;1.39;88.61;101769.13;4956458;28;20074;-69
2022/03/05 03:09:33;;;;;;;1.05;0.47;;;;;;;1.43;88.79;101778.91;4954647;28;20089;-69
2022/03/05 03:11:58;;;;;;;1.50;0.63;;;;;;;1.43;89.12;101770.97;4952057;28;20068;-69
2022/03/05 03:14:23;;;;;;;0.80;0.50;;;;;;;1.41;89.35;101770.47;4975936;28;20038;-69
2022/03/05 03:16:49;;;;;;;0.63;0.40;;;;;;;1.41;89.08;101778.41;4969621;28;20081;-69
2022/03/05 03:19:14;;;;;;;0.20;0.20;;;;;;;1.40;89.51;101768.84;4959733;28;20109;-69
2022/03/05 03:21:40;;;;;;;0.70;0.40;;;;;;;1.37;89.53;101774.69;4976777;28;20070;-69
2022/03/05 03:24:05;;;;;;;1.08;0.43;;;;;;;1.38;89.33;101765.66;4960443;28;20041;-69
2022/03/05 03:26:31;;;;;;;0.60;0.60;;;;;;;1.40;89.55;101778.66;4958501;28;20118;-69
2022/03/05 03:28:56;;;;;;;0.47;0.40;;;;;;;1.35;89.69;101781.31;4966852;28;20035;-70
2022/03/05 03:31:21;;;;;;;0.30;0.30;;;;;;;1.33;89.35;101778.94;4957864;28;20900;-69
2022/03/05 03:33:47;;;;;;;1.30;0.60;;;;;;;1.28;89.80;101781.56;4963138;28;20519;-69
2022/03/05 03:36:12;;;;;;;0.30;0.30;;;;;;;1.29;90.11;101788.50;4966861;28;20030;-70
2022/03/05 03:38:38;;;;;;;0.47;0.47;;;;;;;1.25;90.28;101783.97;4967519;28;20043;-69
2022/03/05 03:41:03;;;;;;;0.30;0.30;;;;;;;1.17;90.58;101785.28;4971771;28;20039;-69
2022/03/05 03:43:28;;;;;;;0.43;0.43;;;;;;;1.19;91.11;101777.88;4952224;28;20045;-69
2022/03/05 03:45:54;;;;;;;0.35;0.35;;;;;;;1.13;90.68;101778.91;4956461;28;20031;-70
2022/03/05 03:48:19;;;;;;;4.07;0.85;;;;;;;1.15;91.00;101773.34;4961705;28;20047;-69
2022/03/05 03:50:45;;;;;;;0.40;0.40;;;;;;;1.17;90.91;101772.03;4950559;28;20094;-69
2022/03/05 03:53:11;;;;;;;1.48;0.60;;;;;;;1.16;90.97;101781.03;4966761;28;20093;-69
2022/03/05 03:55:36;;;;;;;0.43;0.43;;;;;;;1.14;90.67;101785.03;4968526;28;20043;-69
2022/03/05 03:58:02;;;;;;;0.90;0.47;;;;;;;1.10;91.34;101779.47;4951503;28;20428;-69
2022/03/05 04:00:27;;;;;;;4.20;0.65;;;;;;;1.12;91.63;101774.69;4952641;28;20098;-69
2022/03/05 04:02:53;;;;;;;1.65;0.65;;;;;;;1.13;91.34;101781.56;4955711;28;20034;-70
2022/03/05 04:05:18;;;;;;;0.50;0.47;;;;;;;1.11;91.73;101781.03;4964617;28;20173;-70
2022/03/05 04:10:28;;;;;;;2.47;0.57;;;;;;;1.07;92.19;101776.50;4985236;28;20057;-69
2022/03/05 04:12:53;;;;;;;0.60;0.60;;;;;;;1.08;92.14;101778.91;4983470;28;21874;-69
2022/03/05 04:15:19;;;;;;;0.40;0.32;;;;;;;1.02;92.11;101774.66;4966293;28;20035;-69
2022/03/05 04:17:45;;;;;;;0.25;0.25;;;;;;;1.05;92.02;101778.63;4939118;28;20039;-69
2022/03/05 04:20:11;;;;;;;0.50;0.50;;;;;;;1.04;92.33;101777.06;4953882;28;20373;-69
2022/03/05 04:22:36;;;;;;;0.63;0.30;;;;;;;0.95;92.63;101784.72;4951521;28;20047;-70
2022/03/05 04:25:02;;;;;;;1.30;0.65;;;;;;;0.92;92.93;101774.66;4961115;28;20038;-69
2022/03/05 04:27:28;;;;;;;0.45;0.40;;;;;;;0.96;93.07;101777.56;4968960;28;20042;-69
2022/03/05 04:29:54;;;;;;;0.40;0.40;;;;;;;0.93;93.13;101781.53;4971220;28;20551;-70
2022/03/05 04:32:19;;;;;;;2.80;0.77;;;;;;;0.90;93.38;101785.53;4972580;28;20108;-69
2022/03/05 04:34:45;;;;;;;0.45;0.45;;;;;;;0.91;93.42;101781.00;4967012;28;20051;-69
2022/03/05 04:37:10;;;;;;;0.35;0.32;;;;;;;0.90;93.59;101779.41;4971792;28;20062;-69
2022/03/05 04:39:36;;;;;;;1.02;0.82;;;;;;;0.92;93.66;101787.91;4971255;28;20080;-69
2022/03/05 04:42:03;;;;;;;3.03;0.73;;;;;;;0.91;93.65;101781.78;4980897;28;20039;-69
2022/03/05 04:44:28;;;;;;;0.40;0.38;;;;;;;0.92;93.59;101777.28;4969099;28;20033;-69
2022/03/05 04:46:53;;;;;;;0.65;0.35;;;;;;;0.92;93.80;101787.91;4972049;28;20431;-69
2022/03/05 04:49:19;;;;;;;0.82;0.70;;;;;;;0.95;93.51;101778.63;4962949;28;20455;-69
2022/03/05 04:51:44;;;;;;;0.77;0.35;;;;;;;0.89;93.94;101783.13;4971739;28;20042;-69
2022/03/05 04:54:10;;;;;;;0.98;0.63;;;;;;;0.88;93.89;101795.59;4979812;28;20050;-69
2022/03/05 04:56:36;;;;;;;1.70;0.47;;;;;;;0.86;94.24;101791.59;4970211;28;20038;-69
2022/03/05 04:59:02;;;;;;;0.73;0.70;;;;;;;0.79;94.27;101783.88;4973998;28;20121;-69
2022/03/05 05:01:28;;;;;;;0.57;0.35;;;;;;;0.83;94.60;101782.31;4980323;28;20045;-69
2022/03/05 05:03:55;;;;;;;0.40;0.35;;;;;;;0.82;94.72;101782.56;4972670;28;20038;-69
2022/03/05 05:06:20;;;;;;;1.15;0.50;;;;;;;0.85;94.63;101779.41;4964314;28;20030;-69
2022/03/05 05:08:46;;;;;;;1.63;0.60;;;;;;;0.87;94.84;101783.38;4971045;28;20110;-69
2022/03/05 05:11:11;;;;;;;1.42;0.57;;;;;;;0.87;94.78;101785.25;4977476;28;20483;-69
2022/03/05 05:13:38;;;;;;;0.65;0.40;;;;;;;0.89;95.00;101788.44;4971178;28;20038;-69
2022/03/05 05:16:04;;;;;;;1.58;0.52;;;;;;;0.91;94.99;101788.94;4962224;28;20129;-69
2022/03/05 05:18:29;;;;;;;0.52;0.52;;;;;;;0.91;95.34;101781.00;4975979;28;20066;-69
2022/03/05 05:20:55;;;;;;;1.15;1.08;;;;;;;0.98;95.20;101794.00;4970983;28;20062;-69
2022/03/05 05:23:20;;;;;;;1.45;0.75;;;;;;;0.98;95.66;101794.81;4974410;28;20037;-69
2022/03/05 05:25:46;;;;;;;0.47;0.47;;;;;;;1.02;95.12;101801.19;4974363;28;20398;-69
2022/03/05 05:28:11;;;;;;;2.28;0.60;;;;;;;1.04;94.91;101801.72;4975684;28;20088;-69
2022/03/05 05:30:37;;;;;;;0.55;0.52;;;;;;;1.06;94.86;101806.75;4975518;28;20038;-69
2022/03/05 05:33:02;;;;;;;1.60;0.77;;;;;;;1.08;95.04;101801.97;4983441;28;20038;-69
2022/03/05 05:35:28;;;;;;;0.43;0.43;;;;;;;1.08;95.05;101802.78;4956707;28;20474;-69
2022/03/05 05:37:53;;;;;;;1.08;0.65;;;;;;;1.09;95.16;101804.38;4985114;28;20140;-69
2022/03/05 05:40:19;;;;;;;0.60;0.43;;;;;;;1.07;95.28;101813.63;4993665;28;20177;-69
2022/03/05 05:42:44;;;;;;;0.82;0.70;;;;;;;1.09;95.49;101804.38;4968393;28;20038;-69
2022/03/05 05:45:11;;;;;;;0.70;0.60;;;;;;;1.07;95.61;101817.09;4975097;28;20491;-70
2022/03/05 05:47:36;;;;;;;1.02;0.55;;;;;;;1.06;95.80;101812.06;4966178;28;20049;-69
2022/03/05 05:50:04;;;;;;;0.75;0.63;;;;;;;1.12;95.80;101819.78;4953184;28;20038;-69
2022/03/05 05:52:29;;;;;;;0.52;0.52;;;;;;;1.16;95.56;101820.03;4974399;28;20037;-69
2022/03/05 05:54:55;;;;;;;0.95;0.70;;;;;;;1.20;95.68;101819.22;4971584;28;20031;-69
2022/03/05 05:57:20;;;;;;;0.30;0.30;;;;;;;1.23;95.30;101809.97;4972848;28;20130;-69
2022/03/05 05:59:46;;;;;;;0.40;0.40;;;;;;;1.20;95.42;101819.22;4971560;28;20030;-69
2022/03/05 06:02:11;;;;;;;5.32;0.60;;;;;;;1.20;95.24;101824.53;4968135;28;20122;-69
2022/03/05 06:04:37;;;;;;;0.70;0.38;;;;;;;1.25;95.35;101818.44;4977346;28;20035;-69
2022/03/05 06:07:02;;;;;;;0.80;0.80;;;;;;;1.19;95.42;101825.59;4981899;28;20034;-69
2022/03/05 06:09:28;;;;;;;2.80;0.70;;;;;;;1.24;95.62;101825.59;4980577;28;20039;-69
2022/03/05 06:11:54;;;;;;;0.50;0.50;;;;;;;1.23;95.67;101828.53;4975783;28;20496;-69
2022/03/05 06:14:20;;;;;;;1.30;0.63;;;;;;;1.27;96.07;101837.53;4968456;28;20044;-69
2022/03/05 06:16:46;;;;;;;0.30;0.30;;;;;;;1.34;95.62;101846.84;4993618;28;20034;-69
2022/03/05 06:19:11;;;;;;;1.20;0.47;;;;;;;1.35;95.70;101835.19;4978327;28;20046;-69
2022/03/05 06:21:37;;;;;;;0.50;0.50;;;;;;;1.40;95.21;101848.44;4973583;28;20070;-69
2022/03/05 06:24:03;;;;;;;1.40;0.70;;;;;;;1.41;95.64;101844.75;4974135;28;20026;-69
2022/03/05 06:26:30;;;;;;;1.88;0.70;;;;;;;1.42;95.38;101851.63;4964111;28;20041;-70
2022/03/05 06:28:55;;;;;;;0.45;0.45;;;;;;;1.39;95.56;101846.88;4973005;28;20066;-69
2022/03/05 06:31:21;;;;;;;0.98;0.88;;;;;;;1.36;95.74;101843.91;4972824;28;20073;-69
2022/03/05 06:33:46;;;;;;;1.27;0.40;;;;;;;1.37;95.64;101846.31;4974613;28;20089;-69
2022/03/05 06:36:11;;;;;;;0.50;0.40;;;;;;;1.38;95.71;101844.44;4958263;28;20035;-69
2022/03/05 06:38:37;;;;;;;0.60;0.57;;;;;;;1.31;95.94;101849.22;4988980;28;20065;-69
2022/03/05 06:41:02;;;;;;;2.17;0.63;;;;;;;1.35;96.36;101855.59;4974138;28;20041;-69
2022/03/05 06:43:28;;;;;;;2.85;0.60;;;;;;;1.36;96.54;101850.03;4974006;28;20062;-69
2022/03/05 06:45:53;;;;;;;2.28;1.10;;;;;;;1.36;96.46;101846.56;4956417;28;20047;-69
2022/03/05 06:48:18;;;;;;;0.85;0.73;;;;;;;1.38;96.56;101850.56;4972531;28;20035;-69
2022/03/05 06:50:44;;;;;;;1.08;0.70;;;;;;;1.56;95.89;101846.59;4943824;28;20035;-69
2022/03/05 06:53:09;;;;;;;1.80;0.80;;;;;;;1.52;95.98;101842.88;4974758;28;20034;-69
2022/03/05 06:55:35;;;;;;;1.98;0.82;;;;;;;1.63;95.82;101841.81;4969331;28;20038;-69
2022/03/05 06:58:00;;;;;;;0.40;0.40;;;;;;;1.53;96.11;101839.94;4968464;28;20073;-69
2022/03/05 07:00:26;;;;;;;0.95;0.65;;;;;;;1.51;96.74;101844.72;4968435;28;20038;-69
2022/03/05 07:02:51;;;;;;;1.33;0.57;;;;;;;1.52;96.75;101853.50;4981468;28;20081;-69
2022/03/05 07:05:17;;;;;;;0.95;0.73;;;;;;;1.58;96.91;101860.41;4960354;28;20084;-69
2022/03/05 07:07:42;;;;;;;0.85;0.85;;;;;;;1.60;97.08;101859.09;4961005;28;20035;-69
2022/03/05 07:10:09;;;;;;;1.73;0.90;;;;;;;1.65;96.42;101848.47;4962160;28;20043;-69
2022/03/05 07:12:35;;;;;;;1.63;0.57;;;;;;;1.65;96.33;101856.41;4960329;28;20500;-69
2022/03/05 07:15:01;;;;;;;1.00;0.70;;;;;;;1.63;96.91;101849.78;4956047;28;20129;-69
2022/03/05 07:17:27;;;;;;;3.97;0.98;;;;;;;1.63;97.36;101847.94;4938143;28;20035;-69
2022/03/05 07:19:54;;;;;;;8.90;0.98;;;;;;;1.66;97.13;101860.69;4963608;28;20463;-69
2022/03/05 07:22:19;;;;;;;1.10;0.77;;;;;;;1.75;97.25;101856.41;4957485;28;20049;-69
2022/03/05 07:24:45;;;;;;;1.20;0.70;;;;;;;1.77;97.01;101854.31;4951943;28;20043;-69
2022/03/05 07:27:10;;;;;;;1.33;0.93;;;;;;;1.81;97.06;101852.72;4951874;28;20046;-69
2022/03/05 07:29:36;;;;;;;1.55;0.90;;;;;;;1.91;97.30;101857.22;4946932;28;20046;-69
2022/03/05 07:32:03;;;;;;;1.08;0.65;;;;;;;2.03;97.15;101849.78;4961220;28;20035;-69
2022/03/05 07:34:31;;;;;;;1.38;0.70;;;;;;;2.07;97.10;101869.41;4973121;28;20043;-69
2022/03/05 07:36:57;;;;;;;2.88;0.98;;;;;;;2.24;97.03;101875.22;4947501;29;20066;-69
2022/03/05 07:39:24;;;;;;;1.42;1.10;;;;;;;2.40;96.75;101865.38;4958564;28;20042;-69
2022/03/05 07:41:50;;;;;;;0.65;0.60;;;;;;;2.55;96.70;101874.09;4959613;28;20110;-69
2022/03/05 07:44:17;;;;;;;5.47;1.17;;;;;;;2.81;96.23;101863.38;4949894;28;20028;-69
2022/03/05 07:46:43;;;;;;;2.95;0.90;;;;;;;2.97;95.72;101871.00;4968866;28;20074;-70
2022/03/05 07:49:08;;;;;;;1.55;0.85;;;;;;;3.08;95.31;101869.84;4971639;28;20034;-69
2022/03/05 07:51:34;;;;;;;0.80;0.80;;;;;;;3.30;95.28;101870.28;4967651;28;20562;-69
2022/03/05 07:54:00;;;;;;;4.15;1.05;;;;;;;3.45;94.47;101874.69;4966681;28;20039;-69
2022/03/05 07:56:25;;;;;;;2.25;1.17;;;;;;;3.54;93.81;101881.81;4977372;28;20113;-69
2022/03/05 07:58:51;;;;;;;1.77;0.63;;;;;;;3.73;93.48;101881.16;4957075;28;20034;-69
2022/03/05 08:01:16;;;;;;;2.35;0.90;;;;;;;3.91;92.97;101877.81;4934334;28;20030;-70
2022/03/05 08:03:42;;;;;;;2.72;1.88;;;;;;;4.06;91.29;101878.47;4973148;28;20035;-69
2022/03/05 08:06:07;;;;;;;4.60;1.10;;;;;;;4.18;91.38;101880.78;4960568;28;20534;-69
2022/03/05 08:08:32;;;;;;;2.05;1.15;;;;;;;4.25;90.83;101876.69;4970858;28;20472;-69
2022/03/05 08:10:59;;;;;;;0.95;0.85;;;;;;;4.40;90.60;101879.19;4971258;28;20034;-69
2022/03/05 08:13:24;;;;;;;2.90;0.73;;;;;;;4.53;89.16;101877.72;4968791;28;20451;-69
2022/03/05 08:15:50;;;;;;;2.25;1.40;;;;;;;4.69;88.90;101889.81;4962256;28;20038;-69
2022/03/05 08:18:15;;;;;;;2.15;1.30;;;;;;;4.82;88.64;101885.69;4955372;28;20035;-69
2022/03/05 08:20:41;;;;;;;4.00;1.67;;;;;;;4.88;87.62;101879.97;4954851;28;20071;-70
2022/03/05 08:23:07;;;;;;;2.92;1.38;;;;;;;5.02;87.28;101888.88;4937438;28;20459;-70
2022/03/05 08:25:33;;;;;;;2.20;1.30;;;;;;;5.09;86.13;101888.53;4939197;28;20109;-69
2022/03/05 08:27:58;;;;;;;2.50;1.38;;;;;;;5.26;86.01;101889.63;4957133;28;20146;-70
2022/03/05 08:30:24;;;;;;;1.95;1.55;;;;;;;5.34;85.46;101885.50;4953953;28;20083;-70
2022/03/05 08:32:50;;;;;;;5.63;1.55;;;;;;;5.36;85.43;101896.69;4958158;28;20049;-70
2022/03/05 08:35:16;;;;;;;6.35;1.15;;;;;;;5.43;84.50;101897.13;4960236;28;20038;-70
2022/03/05 08:37:42;;;;;;;1.40;1.17;;;;;;;5.53;84.29;101893.50;4966270;28;20035;-70
2022/03/05 08:40:10;;;;;;;2.38;1.35;;;;;;;5.66;83.94;101888.22;4949826;28;20038;-69
2022/03/05 08:42:36;;;;;;;1.52;1.08;;;;;;;5.81;83.42;101885.31;4961467;28;20039;-69
2022/03/05 08:45:04;;;;;;;2.67;1.67;;;;;;;5.96;82.59;101897.69;4961686;28;20365;-69
2022/03/05 08:47:29;;;;;;;10.02;1.58;;;;;;;6.02;82.46;101888.50;4969453;28;20046;-69
2022/03/05 08:49:55;;;;;;;6.18;1.58;;;;;;;6.22;82.36;101899.63;4969854;28;20079;-70
2022/03/05 08:52:20;;;;;;;2.17;1.20;;;;;;;6.26;81.72;101894.47;4956233;28;20101;-69
2022/03/05 08:54:46;;;;;;;3.28;1.77;;;;;;;6.37;80.93;101898.53;4967855;28;20074;-69
2022/03/05 08:57:11;;;;;;;2.80;1.85;;;;;;;6.48;80.46;101897.28;4971815;28;20448;-69
2022/03/05 08:59:38;;;;;;;3.13;1.38;;;;;;;6.69;79.33;101895.81;4955397;28;20050;-69
2022/03/05 09:02:04;;;;;;;2.75;1.52;;;;;;;6.77;78.82;101900.47;4954991;28;20696;-70
2022/03/05 09:04:30;;;;;;;2.28;1.25;;;;;;;6.81;78.35;101896.09;4972727;28;20085;-69
2022/03/05 09:06:56;;;;;;;3.00;1.40;;;;;;;6.87;77.96;101892.22;4975398;28;20042;-69
2022/03/05 09:09:21;;;;;;;2.13;1.52;;;;;;;7.15;76.57;101893.78;4956596;28;20026;-70
2022/03/05 09:11:47;;;;;;;2.53;1.35;;;;;;;7.15;75.01;101893.78;4967633;28;20035;-69
2022/03/05 09:14:12;;;;;;;2.28;1.52;;;;;;;7.20;73.55;101887.53;4963980;28;20073;-69
2022/03/05 09:16:38;;;;;;;4.65;1.67;;;;;;;7.24;72.91;101885.78;4963414;28;20047;-69
2022/03/05 09:19:05;;;;;;;5.22;1.73;;;;;;;7.24;71.85;101891.94;4968494;28;20435;-69
2022/03/05 09:21:32;;;;;;;2.53;1.83;;;;;;;7.39;71.96;101895.41;4964882;28;20038;-69
2022/03/05 09:23:57;;;;;;;7.10;2.25;;;;;;;7.36;70.51;101893.31;4973465;28;20038;-69
2022/03/05 09:26:23;;;;;;;3.08;1.90;;;;;;;7.38;69.84;101888.44;4969423;28;20035;-69
2022/03/05 09:28:50;;;;;;;3.88;2.03;;;;;;;7.51;69.24;101885.72;4933403;28;20046;-70
2022/03/05 09:31:16;;;;;;;8.43;2.10;;;;;;;7.58;68.70;101885.31;4947719;28;20050;-69
2022/03/05 09:33:41;;;;;;;4.72;2.08;;;;;;;7.68;67.94;101885.06;4971446;28;20042;-69
2022/03/05 09:36:08;;;;;;;4.43;1.50;;;;;;;7.56;67.27;101884.81;4967207;28;20109;-69
2022/03/05 09:38:33;;;;;;;4.15;1.65;;;;;;;7.61;67.03;101879.31;4952292;28;20058;-70
2022/03/05 09:41:02;;;;;;;3.42;1.48;;;;;;;7.86;66.62;101882.19;4971652;28;20077;-69
2022/03/05 09:43:28;;;;;;;3.78;1.63;;;;;;;7.95;64.39;101882.25;4975517;28;20062;-69
2022/03/05 09:45:54;;;;;;;3.53;1.55;;;;;;;7.77;64.78;101876.00;4950944;28;20078;-70
2022/03/05 09:48:19;;;;;;;2.88;1.17;;;;;;;7.88;66.01;101871.94;4966911;28;20049;-69
2022/03/05 09:50:45;;;;;;;4.15;1.83;;;;;;;7.99;64.51;101880.56;4972978;28;20042;-70
2022/03/05 09:53:10;;;;;;;2.60;1.58;;;;;;;7.99;64.46;101880.56;4948392;28;20110;-69
2022/03/05 09:55:36;;;;;;;2.47;1.45;;;;;;;8.02;64.23;101877.25;4972509;28;20674;-69
2022/03/05 09:58:02;;;;;;;8.05;1.80;;;;;;;7.93;65.44;101874.53;4953664;28;20447;-69
2022/03/05 10:00:28;;;;;;;3.22;1.63;;;;;;;7.89;65.15;101867.38;4973587;28;20503;-69
2022/03/05 10:02:53;;;;;;;3.55;1.90;;;;;;;8.02;65.55;101875.34;4951466;28;20029;-69
2022/03/05 10:05:24;;;;;;;2.63;1.80;;;;;;;8.08;66.12;101873.34;4968492;28;20408;-69
2022/03/05 10:08:00;;;;;;;2.78;1.60;;;;;;;8.34;64.84;101878.88;4969362;28;20118;-69
2022/03/05 10:10:26;;;;;;;5.05;2.03;;;;;;;8.34;65.59;101886.91;4964648;28;20041;-69
2022/03/05 10:12:51;;;;;;;4.43;2.17;;;;;;;8.23;66.14;101871.06;4969887;28;20114;-69
2022/03/05 10:15:23;;;;;;;4.72;2.30;;;;;;;8.35;66.13;101878.56;4969720;28;20125;-70
2022/03/05 10:17:59;;;;;;;3.72;2.08;;;;;;;8.11;65.88;101878.06;4966316;28;20045;-70
2022/03/05 10:20:30;;;;;;;3.05;1.52;;;;;;;8.07;65.93;101882.50;4969671;28;20026;-70
2022/03/05 10:22:59;;;;;;;2.40;1.70;;;;;;;8.21;66.02;101873.25;4954063;28;20043;-69
2022/03/05 10:25:43;;;;;;;3.95;1.70;;;;;;;8.40;64.57;101870.34;4968957;28;20085;-69
2022/03/05 10:28:23;;;;;;;1.45;1.13;;;;;;;8.42;64.58;101867.38;4941584;28;20031;-69
2022/03/05 10:30:51;;;;;;;3.55;2.00;;;;;;;8.40;62.25;101877.63;4963260;28;20022;-69
2022/03/05 10:33:39;;;;;;;2.28;1.70;;;;;;;8.44;61.98;101874.00;4966343;28;20038;-69
2022/03/05 10:36:19;;;;;;;2.85;1.52;;;;;;;8.45;62.30;101872.91;4973562;28;20039;-69
2022/03/05 10:38:50;;;;;;;3.28;1.40;;;;;;;8.46;62.40;101863.75;4964321;28;20412;-70
2022/03/05 10:41:18;;;;;;;4.40;2.20;;;;;;;8.61;61.20;101871.41;4951715;28;20528;-70
2022/03/05 10:43:47;;;;;;;1.90;1.40;;;;;;;8.55;60.58;101871.84;4967571;28;20094;-69
2022/03/05 10:46:13;;;;;;;2.65;1.52;;;;;;;8.67;59.38;101870.13;4969651;28;20054;-69
2022/03/05 10:48:41;;;;;;;2.75;1.48;;;;;;;8.65;59.25;101869.66;4977101;28;20733;-69
2022/03/05 10:51:13;;;;;;;1.85;1.20;;;;;;;8.65;59.05;101877.72;4972025;28;20031;-69
2022/03/05 10:53:43;;;;;;;;;;;;;;;8.67;58.23;101878.19;4956014;28;20042;-70
2022/03/05 10:56:32;;;;;;;1.67;1.48;;;;;;;8.51;57.74;101871.69;4968176;28;20381;-69
2022/03/05 10:59:02;;;;;;;3.97;1.33;;;;;;;8.24;58.32;101866.47;4971557;28;20411;-69
2022/03/05 11:01:29;;;;;;;4.18;1.35;;;;;;;8.23;59.20;101854.94;4972260;28;20027;-69
2022/03/05 11:03:56;;;;;;;1.95;1.27;;;;;;;8.26;59.26;101853.59;4963432;28;20058;-69
2022/03/05 11:06:23;;;;;;;2.42;1.60;;;;;;;8.34;60.19;101846.66;4962639;28;20046;-70
2022/03/05 11:08:49;;;;;;;4.22;1.77;;;;;;;8.54;60.15;101849.56;4971708;28;20444;-69
2022/03/05 11:11:16;;;;;;;1.75;1.08;;;;;;;8.64;58.56;101843.91;4955203;28;20524;-69
2022/03/05 11:13:42;;;;;;;4.13;1.52;;;;;;;8.47;57.40;101851.94;4971989;28;20043;-69
2022/03/05 11:16:09;;;;;;;4.25;1.00;;;;;;;8.11;57.54;101840.50;4970075;28;20027;-69
2022/03/05 11:18:39;;;;;;;5.85;1.67;;;;;;;8.08;57.89;101833.91;4966026;28;20380;-69
2022/03/05 11:21:05;;;;;;;3.75;1.20;;;;;;;8.04;58.49;101834.81;4969262;28;20047;-69
2022/03/05 11:23:33;;;;;;;3.58;1.50;;;;;;;8.12;58.88;101842.91;4953166;28;20038;-69
2022/03/05 11:26:00;;;;;;;1.90;1.38;;;;;;;8.09;58.05;101832.00;4958902;28;20039;-69
2022/03/05 11:28:35;;;;;;;2.03;1.45;;;;;;;8.23;57.59;101848.03;4976050;28;20051;-69
2022/03/05 11:31:06;;;;;;;7.05;1.70;;;;;;;8.36;58.36;101831.84;4964692;28;20140;-69